sensor_id;sensor_type;location;lat;lon;timestamp;pressure;altitude;pressure_sealevel;temperature;humidity
56928;BME280;60850;52.502;13.426;2023-03-21T00:02:13;101235.16;;;10.32;100.00
56928;BME280;60850;52.502;13.426;2023-03-21T00:04:41;101237.94;;;10.24;100.00
56928;BME280;60850;52.502;13.426;2023-03-21T00:07:09;101235.28;;;10.21;100.00
56928;BME280;60850;52.502;13.426;2023-03-21T00:09:36;101234.50;;;10.14;100.00
56928;BME280;60850;52.502;13.426;2023-03-21T00:12:03;101238.97;;;10.14;100.00
56928;BME280;60850;52.502;13.426;2023-03-21T00:14:34;101234.53;;;10.13;100.00
56928;BME280;60850;52.502;13.426;2023-03-21T00:17:03;101233.66;;;10.12;100.00
56928;BME280;60850;52.502;13.426;2023-03-21T00:19:29;101231.88;;;10.13;100.00
56928;BME280;60850;52.502;13.426;2023-03-21T00:21:57;101228.31;;;10.15;100.00
56928;BME280;60850;52.502;13.426;2023-03-21T00:24:27;101227.44;;;10.15;100.00
56928;BME280;60850;52.502;13.426;2023-03-21T00:26:55;101222.13;;;10.12;100.00
56928;BME280;60850;52.502;13.426;2023-03-21T00:29:22;101223.94;;;10.10;100.00
56928;BME280;60850;52.502;13.426;2023-03-21T00:31:49;101221.22;;;10.13;100.00
56928;BME280;60850;52.502;13.426;2023-03-21T00:34:16;101218.56;;;10.13;100.00
56928;BME280;60850;52.502;13.426;2023-03-21T00:36:43;101220.38;;;10.11;100.00
56928;BME280;60850;52.502;13.426;2023-03-21T00:39:09;101220.34;;;10.12;100.00
56928;BME280;60850;52.502;13.426;2023-03-21T00:41:38;101210.56;;;10.13;100.00
56928;BME280;60850;52.502;13.426;2023-03-21T00:44:05;101220.34;;;10.12;100.00
56928;BME280;60850;52.502;13.426;2023-03-21T00:46:32;101209.78;;;10.08;100.00
56928;BME280;60850;52.502;13.426;2023-03-21T00:49:00;101207.97;;;10.10;100.00
56928;BME280;60850;52.502;13.426;2023-03-21T00:51:27;101212.38;;;10.11;100.00
56928;BME280;60850;52.502;13.426;2023-03-21T00:53:56;101206.16;;;10.12;100.00
56928;BME280;60850;52.502;13.426;2023-03-21T00:56:24;101212.34;;;10.12;100.00
56928;BME280;60850;52.502;13.426;2023-03-21T00:58:52;101214.06;;;10.16;100.00
56928;BME280;60850;52.502;13.426;2023-03-21T01:01:19;101207.00;;;10.14;100.00
56928;BME280;60850;52.502;13.426;2023-03-21T01:03:46;101184.97;;;10.04;100.00
56928;BME280;60850;52.502;13.426;2023-03-21T01:06:17;101207.88;;;10.14;100.00
56928;BME280;60850;52.502;13.426;2023-03-21T01:08:46;101207.88;;;10.16;100.00
56928;BME280;60850;52.502;13.426;2023-03-21T01:11:15;101210.56;;;10.13;100.00
56928;BME280;60850;52.502;13.426;2023-03-21T01:13:42;101207.97;;;10.10;100.00
56928;BME280;60850;52.502;13.426;2023-03-21T01:16:11;101201.69;;;10.12;100.00
56928;BME280;60850;52.502;13.426;2023-03-21T01:18:40;101204.31;;;10.14;100.00
56928;BME280;60850;52.502;13.426;2023-03-21T01:21:10;101208.78;;;10.13;100.00
56928;BME280;60850;52.502;13.426;2023-03-21T01:23:38;101204.31;;;10.14;100.00
56928;BME280;60850;52.502;13.426;2023-03-21T01:26:07;101205.31;;;10.10;100.00
56928;BME280;60850;52.502;13.426;2023-03-21T01:28:34;101203.56;;;10.07;100.00
56928;BME280;60850;52.502;13.426;2023-03-21T01:31:03;101200.97;;;10.03;100.00
56928;BME280;60850;52.502;13.426;2023-03-21T01:33:33;101204.56;;;10.02;100.00
56928;BME280;60850;52.502;13.426;2023-03-21T01:36:00;101200.16;;;10.01;100.00
56928;BME280;60850;52.502;13.426;2023-03-21T01:38:28;101201.91;;;10.00;100.00
56928;BME280;60850;52.502;13.426;2023-03-21T01:40:55;101198.44;;;9.95;100.00
56928;BME280;60850;52.502;13.426;2023-03-21T01:43:25;101206.50;;;9.90;100.00
56928;BME280;60850;52.502;13.426;2023-03-21T01:48:59;101199.47;;;9.88;100.00
56928;BME280;60850;52.502;13.426;2023-03-21T01:51:29;101203.03;;;9.85;100.00
56928;BME280;60850;52.502;13.426;2023-03-21T01:53:58;101202.13;;;9.86;100.00
56928;BME280;60850;52.502;13.426;2023-03-21T01:56:28;101195.03;;;9.85;100.00
56928;BME280;60850;52.502;13.426;2023-03-21T01:59:00;101199.47;;;9.86;100.00
56928;BME280;60850;52.502;13.426;2023-03-21T02:01:34;101191.50;;;9.85;100.00
56928;BME280;60850;52.502;13.426;2023-03-21T02:04:04;101189.78;;;9.82;100.00
56928;BME280;60850;52.502;13.426;2023-03-21T02:06:39;101194.25;;;9.80;100.00
56928;BME280;60850;52.502;13.426;2023-03-21T02:09:12;101185.44;;;9.77;100.00
56928;BME280;60850;52.502;13.426;2023-03-21T02:11:40;101200.50;;;9.78;100.00
56928;BME280;60850;52.502;13.426;2023-03-21T02:14:13;101191.59;;;9.79;100.00
56928;BME280;60850;52.502;13.426;2023-03-21T02:16:47;101189.00;;;9.76;100.00
56928;BME280;60850;52.502;13.426;2023-03-21T02:26:08;101192.63;;;9.70;100.00
56928;BME280;60850;52.502;13.426;2023-03-21T02:28:45;101184.63;;;9.70;100.00
56928;BME280;60850;52.502;13.426;2023-03-21T02:31:26;101186.41;;;9.71;100.00
56928;BME280;60850;52.502;13.426;2023-03-21T02:36:51;101182.91;;;9.68;100.00
56928;BME280;60850;52.502;13.426;2023-03-21T02:39:23;101183.84;;;9.63;100.00
56928;BME280;60850;52.502;13.426;2023-03-21T02:41:59;101191.88;;;9.62;100.00
56928;BME280;60850;52.502;13.426;2023-03-21T02:44:34;101186.53;;;9.62;100.00
56928;BME280;60850;52.502;13.426;2023-03-21T02:47:05;101188.34;;;9.61;100.00
56928;BME280;60850;52.502;13.426;2023-03-21T02:49:38;101187.47;;;9.61;100.00
56928;BME280;60850;52.502;13.426;2023-03-21T02:52:13;101190.16;;;9.59;100.00
56928;BME280;60850;52.502;13.426;2023-03-21T02:54:42;101191.03;;;9.60;100.00
56928;BME280;60850;52.502;13.426;2023-03-21T02:57:10;101180.47;;;9.54;100.00
56928;BME280;60850;52.502;13.426;2023-03-21T02:59:38;101179.63;;;9.52;100.00
56928;BME280;60850;52.502;13.426;2023-03-21T03:02:07;101189.38;;;9.50;100.00
56928;BME280;60850;52.502;13.426;2023-03-21T03:04:34;101190.31;;;9.47;100.00
56928;BME280;60850;52.502;13.426;2023-03-21T03:07:18;101184.13;;;9.47;100.00
56928;BME280;60850;52.502;13.426;2023-03-21T03:09:57;101193.00;;;9.46;100.00
56928;BME280;60850;52.502;13.426;2023-03-21T03:12:30;101190.31;;;9.47;100.00
56928;BME280;60850;52.502;13.426;2023-03-21T03:15:06;101190.38;;;9.43;100.00
56928;BME280;60850;52.502;13.426;2023-03-21T03:17:45;101188.59;;;9.45;100.00
56928;BME280;60850;52.502;13.426;2023-03-21T03:20:27;101190.38;;;9.43;100.00
56928;BME280;60850;52.502;13.426;2023-03-21T03:23:08;101195.72;;;9.41;100.00
56928;BME280;60850;52.502;13.426;2023-03-21T03:25:42;101186.94;;;9.36;100.00
56928;BME280;60850;52.502;13.426;2023-03-21T03:28:15;101186.94;;;9.36;100.00
56928;BME280;60850;52.502;13.426;2023-03-21T03:30:45;101181.59;;;9.36;100.00
56928;BME280;60850;52.502;13.426;2023-03-21T03:33:13;101188.75;;;9.34;100.00
56928;BME280;60850;52.502;13.426;2023-03-21T03:35:43;101195.91;;;9.30;100.00
56928;BME280;60850;52.502;13.426;2023-03-21T03:38:12;101191.47;;;9.31;100.00
56928;BME280;60850;52.502;13.426;2023-03-21T03:40:43;101192.34;;;9.31;100.00
56928;BME280;60850;52.502;13.426;2023-03-21T03:43:15;101198.50;;;9.33;100.00
56928;BME280;60850;52.502;13.426;2023-03-21T03:45:47;101196.84;;;9.26;100.00
56928;BME280;60850;52.502;13.426;2023-03-21T03:48:18;101197.72;;;9.27;100.00
56928;BME280;60850;52.502;13.426;2023-03-21T03:50:53;101200.41;;;9.25;100.00
56928;BME280;60850;52.502;13.426;2023-03-21T03:53:26;101201.31;;;9.23;100.00
56928;BME280;60850;52.502;13.426;2023-03-21T03:55:55;101196.84;;;9.25;100.00
56928;BME280;60850;52.502;13.426;2023-03-21T03:58:23;101197.75;;;9.22;100.00
56928;BME280;60850;52.502;13.426;2023-03-21T04:00:51;101201.31;;;9.21;100.00
56928;BME280;60850;52.502;13.426;2023-03-21T04:03:19;101195.97;;;9.23;100.00
56928;BME280;60850;52.502;13.426;2023-03-21T04:05:46;101194.19;;;9.25;100.00
56928;BME280;60850;52.502;13.426;2023-03-21T04:08:14;101191.53;;;9.25;100.00
56928;BME280;60850;52.502;13.426;2023-03-21T04:10:43;101200.41;;;9.25;100.00
56928;BME280;60850;52.502;13.426;2023-03-21T04:13:10;101177.44;;;9.18;100.00
56928;BME280;60850;52.502;13.426;2023-03-21T04:15:37;101188.91;;;9.23;100.00
56928;BME280;60850;52.502;13.426;2023-03-21T04:18:04;101188.81;;;9.28;100.00
56928;BME280;60850;52.502;13.426;2023-03-21T04:20:31;101193.25;;;9.30;100.00
56928;BME280;60850;52.502;13.426;2023-03-21T04:22:58;101190.53;;;9.33;100.00
56928;BME280;60850;52.502;13.426;2023-03-21T04:25:25;101194.13;;;9.31;100.00
56928;BME280;60850;52.502;13.426;2023-03-21T04:27:55;101191.47;;;9.31;100.00
56928;BME280;60850;52.502;13.426;2023-03-21T04:30:22;101187.94;;;9.27;100.00
56928;BME280;60850;52.502;13.426;2023-03-21T04:32:50;101188.88;;;9.25;100.00
56928;BME280;60850;52.502;13.426;2023-03-21T04:35:22;101189.69;;;9.28;100.00
56928;BME280;60850;52.502;13.426;2023-03-21T04:37:50;101195.06;;;9.27;100.00
56928;BME280;60850;52.502;13.426;2023-03-21T04:40:17;101189.75;;;9.25;100.00
56928;BME280;60850;52.502;13.426;2023-03-21T04:42:45;101199.50;;;9.26;100.00
56928;BME280;60850;52.502;13.426;2023-03-21T04:45:14;101194.22;;;9.23;100.00
56928;BME280;60850;52.502;13.426;2023-03-21T04:47:41;101190.63;;;9.26;100.00
56928;BME280;60850;52.502;13.426;2023-03-21T04:50:10;101198.59;;;9.27;100.00
56928;BME280;60850;52.502;13.426;2023-03-21T04:52:38;101198.56;;;9.30;100.00
56928;BME280;60850;52.502;13.426;2023-03-21T04:55:06;101187.91;;;9.30;100.00
56928;BME280;60850;52.502;13.426;2023-03-21T04:57:34;101194.13;;;9.29;100.00
56928;BME280;60850;52.502;13.426;2023-03-21T05:00:04;101192.41;;;9.25;100.00
56928;BME280;60850;52.502;13.426;2023-03-21T05:02:37;101196.78;;;9.29;100.00
56928;BME280;60850;52.502;13.426;2023-03-21T05:05:05;101189.69;;;9.28;100.00
56928;BME280;60850;52.502;13.426;2023-03-21T05:07:36;101195.91;;;9.30;100.00
56928;BME280;60850;52.502;13.426;2023-03-21T05:10:04;101193.25;;;9.30;100.00
56928;BME280;60850;52.502;13.426;2023-03-21T05:12:34;101187.03;;;9.28;100.00
56928;BME280;60850;52.502;13.426;2023-03-21T05:15:01;101194.09;;;9.32;100.00
56928;BME280;60850;52.502;13.426;2023-03-21T05:17:30;101191.44;;;9.32;100.00
56928;BME280;60850;52.502;13.426;2023-03-21T05:19:59;101187.88;;;9.32;100.00
56928;BME280;60850;52.502;13.426;2023-03-21T05:22:25;101187.91;;;9.30;100.00
56928;BME280;60850;52.502;13.426;2023-03-21T05:24:53;101184.31;;;9.33;100.00
56928;BME280;60850;52.502;13.426;2023-03-21T05:27:21;101189.63;;;9.34;100.00
56928;BME280;60850;52.502;13.426;2023-03-21T05:30:02;101193.22;;;9.32;100.00
56928;BME280;60850;52.502;13.426;2023-03-21T05:32:30;101186.13;;;9.31;100.00
56928;BME280;60850;52.502;13.426;2023-03-21T05:34:58;101188.75;;;9.34;100.00
56928;BME280;60850;52.502;13.426;2023-03-21T05:37:25;101187.78;;;9.40;100.00
56928;BME280;60850;52.502;13.426;2023-03-21T05:39:52;101183.34;;;9.40;100.00
56928;BME280;60850;52.502;13.426;2023-03-21T05:42:19;101186.94;;;9.38;100.00
56928;BME280;60850;52.502;13.426;2023-03-21T05:44:46;101189.59;;;9.38;100.00
56928;BME280;60850;52.502;13.426;2023-03-21T05:47:14;101183.31;;;9.42;100.00
56928;BME280;60850;52.502;13.426;2023-03-21T05:49:42;101189.44;;;9.47;100.00
56928;BME280;60850;52.502;13.426;2023-03-21T05:52:10;101193.81;;;9.51;100.00
56928;BME280;60850;52.502;13.426;2023-03-21T05:54:38;101187.50;;;9.56;100.00
56928;BME280;60850;52.502;13.426;2023-03-21T05:57:05;101191.00;;;9.61;100.00
56928;BME280;60850;52.502;13.426;2023-03-21T05:59:32;101197.91;;;9.75;100.00
56928;BME280;60850;52.502;13.426;2023-03-21T06:01:59;101196.84;;;9.83;100.00
56928;BME280;60850;52.502;13.426;2023-03-21T06:04:26;101197.69;;;9.88;100.00
56928;BME280;60850;52.502;13.426;2023-03-21T06:06:54;101196.72;;;9.91;100.00
56928;BME280;60850;52.502;13.426;2023-03-21T06:09:22;101195.91;;;9.87;100.00
56928;BME280;60850;52.502;13.426;2023-03-21T06:11:52;101197.69;;;9.85;100.00
56928;BME280;60850;52.502;13.426;2023-03-21T06:14:20;101202.09;;;9.89;100.00
56928;BME280;60850;52.502;13.426;2023-03-21T06:16:47;101203.78;;;9.94;100.00
56928;BME280;60850;52.502;13.426;2023-03-21T06:19:15;101210.91;;;9.93;100.00
56928;BME280;60850;52.502;13.426;2023-03-21T06:21:42;101198.44;;;9.95;100.00
56928;BME280;60850;52.502;13.426;2023-03-21T06:24:09;101200.31;;;9.90;100.00
56928;BME280;60850;52.502;13.426;2023-03-21T06:26:37;101208.25;;;9.91;100.00
56928;BME280;60850;52.502;13.426;2023-03-21T06:29:04;101205.63;;;9.90;100.00
56928;BME280;60850;52.502;13.426;2023-03-21T06:31:31;101206.44;;;9.95;100.00
56928;BME280;60850;52.502;13.426;2023-03-21T06:33:58;101207.22;;;10.00;100.00
56928;BME280;60850;52.502;13.426;2023-03-21T06:36:25;101206.25;;;10.06;100.00
56928;BME280;60850;52.502;13.426;2023-03-21T06:38:52;101208.88;;;10.09;100.00
56928;BME280;60850;52.502;13.426;2023-03-21T06:41:19;101213.38;;;10.05;100.00
56928;BME280;60850;52.502;13.426;2023-03-21T06:43:47;101208.88;;;10.09;100.00
56928;BME280;60850;52.502;13.426;2023-03-21T06:46:14;101206.97;;;10.17;100.00
56928;BME280;60850;52.502;13.426;2023-03-21T06:48:41;101206.88;;;10.23;100.00
56928;BME280;60850;52.502;13.426;2023-03-21T06:51:10;101209.53;;;10.25;100.00
56928;BME280;60850;52.502;13.426;2023-03-21T06:53:38;101212.13;;;10.29;100.00
56928;BME280;60850;52.502;13.426;2023-03-21T06:56:07;101218.22;;;10.34;100.00
56928;BME280;60850;52.502;13.426;2023-03-21T06:58:34;101215.44;;;10.40;100.00
56928;BME280;60850;52.502;13.426;2023-03-21T07:01:03;101216.44;;;10.36;100.00
56928;BME280;60850;52.502;13.426;2023-03-21T07:03:30;101218.22;;;10.34;100.00
56928;BME280;60850;52.502;13.426;2023-03-21T07:05:57;101217.31;;;10.35;100.00
56928;BME280;60850;52.502;13.426;2023-03-21T07:08:24;101213.75;;;10.35;100.00
56928;BME280;60850;52.502;13.426;2023-03-21T07:10:54;101214.69;;;10.34;100.00
56928;BME280;60850;52.502;13.426;2023-03-21T07:13:22;101219.16;;;10.32;100.00
56928;BME280;60850;52.502;13.426;2023-03-21T07:15:50;101220.09;;;10.28;100.00
56928;BME280;60850;52.502;13.426;2023-03-21T07:18:19;101226.31;;;10.28;100.00
56928;BME280;60850;52.502;13.426;2023-03-21T07:20:47;101225.47;;;10.26;100.00
56928;BME280;60850;52.502;13.426;2023-03-21T07:23:16;101227.19;;;10.30;100.00
56928;BME280;60850;52.502;13.426;2023-03-21T07:25:43;101218.25;;;10.33;100.00
56928;BME280;60850;52.502;13.426;2023-03-21T07:28:11;101225.53;;;10.20;100.00
56928;BME280;60850;52.502;13.426;2023-03-21T07:30:37;101224.59;;;10.26;100.00
56928;BME280;60850;52.502;13.426;2023-03-21T07:33:05;101225.53;;;10.23;100.00
56928;BME280;60850;52.502;13.426;2023-03-21T07:35:34;101224.69;;;10.18;100.00
56928;BME280;60850;52.502;13.426;2023-03-21T07:38:02;101229.19;;;10.14;100.00
56928;BME280;60850;52.502;13.426;2023-03-21T07:40:29;101231.88;;;10.13;100.00
56928;BME280;60850;52.502;13.426;2023-03-21T07:42:56;101232.75;;;10.15;100.00
56928;BME280;60850;52.502;13.426;2023-03-21T07:45:22;101237.94;;;10.24;100.00
56928;BME280;60850;52.502;13.426;2023-03-21T07:47:51;101229.09;;;10.21;100.00
56928;BME280;60850;52.502;13.426;2023-03-21T07:50:19;101230.94;;;10.17;100.00
56928;BME280;60850;52.502;13.426;2023-03-21T07:52:48;101237.19;;;10.14;100.00
56928;BME280;60850;52.502;13.426;2023-03-21T07:55:15;101230.94;;;10.17;100.00
56928;BME280;60850;52.502;13.426;2023-03-21T07:57:43;101227.19;;;10.29;100.00
56928;BME280;60850;52.502;13.426;2023-03-21T08:00:12;101218.25;;;10.33;100.00
56928;BME280;60850;52.502;13.426;2023-03-21T08:02:48;101221.78;;;10.33;100.00
56928;BME280;60850;52.502;13.426;2023-03-21T08:05:19;101221.72;;;10.38;100.00
56928;BME280;60850;52.502;13.426;2023-03-21T08:07:48;101225.13;;;10.46;100.00
56928;BME280;60850;52.502;13.426;2023-03-21T08:10:16;101221.47;;;10.52;100.00
56928;BME280;60850;52.502;13.426;2023-03-21T08:12:44;101221.38;;;10.58;100.00
56928;BME280;60850;52.502;13.426;2023-03-21T08:15:12;101223.13;;;10.59;100.00
56928;BME280;60850;52.502;13.426;2023-03-21T08:17:40;101214.03;;;10.69;100.00
56928;BME280;60850;52.502;13.426;2023-03-21T08:20:12;101216.53;;;10.77;100.00
56928;BME280;60850;52.502;13.426;2023-03-21T08:22:41;101219.88;;;10.88;100.00
56928;BME280;60850;52.502;13.426;2023-03-21T08:25:11;101220.88;;;10.82;100.00
56928;BME280;60850;52.502;13.426;2023-03-21T08:27:39;101220.00;;;10.82;100.00
56928;BME280;60850;52.502;13.426;2023-03-21T08:30:07;101212.94;;;10.78;100.00
56928;BME280;60850;52.502;13.426;2023-03-21T08:32:43;101218.16;;;10.84;100.00
56928;BME280;60850;52.502;13.426;2023-03-21T08:35:18;101226.94;;;10.90;100.00
56928;BME280;60850;52.502;13.426;2023-03-21T08:37:49;101221.56;;;10.93;100.00
56928;BME280;60850;52.502;13.426;2023-03-21T08:40:21;101217.84;;;10.99;100.00
56928;BME280;60850;52.502;13.426;2023-03-21T08:42:48;101219.44;;;11.09;100.00
56928;BME280;60850;52.502;13.426;2023-03-21T08:45:16;101212.97;;;11.21;100.00
56928;BME280;60850;52.502;13.426;2023-03-21T08:47:44;101220.59;;;11.38;100.00
56928;BME280;60850;52.502;13.426;2023-03-21T08:50:25;101215.19;;;11.41;100.00
56928;BME280;60850;52.502;13.426;2023-03-21T08:53:00;101221.22;;;11.50;100.00
56928;BME280;60850;52.502;13.426;2023-03-21T08:55:28;101222.97;;;11.51;100.00
56928;BME280;60850;52.502;13.426;2023-03-21T08:57:56;101221.06;;;11.57;100.00
56928;BME280;60850;52.502;13.426;2023-03-21T09:00:23;101220.06;;;11.61;100.00
56928;BME280;60850;52.502;13.426;2023-03-21T09:02:51;101225.56;;;11.54;100.00
56928;BME280;60850;52.502;13.426;2023-03-21T09:05:19;101228.31;;;11.51;100.00
56928;BME280;60850;52.502;13.426;2023-03-21T09:07:54;101196.78;;;11.27;100.00
56928;BME280;60850;52.502;13.426;2023-03-21T09:10:22;101228.66;;;11.36;100.00
56928;BME280;60850;52.502;13.426;2023-03-21T09:12:52;101225.72;;;11.07;100.00
56928;BME280;60850;52.502;13.426;2023-03-21T09:15:20;101227.53;;;11.05;100.00
56928;BME280;60850;52.502;13.426;2023-03-21T09:17:49;101230.06;;;11.11;100.00
56928;BME280;60850;52.502;13.426;2023-03-21T09:20:17;101231.56;;;11.24;100.00
56928;BME280;60850;52.502;13.426;2023-03-21T09:22:46;101222.56;;;11.30;100.00
56928;BME280;60850;52.502;13.426;2023-03-21T09:25:14;101226.56;;;11.50;100.00
56928;BME280;60850;52.502;13.426;2023-03-21T09:27:42;101231.75;;;11.57;100.00
56928;BME280;60850;52.502;13.426;2023-03-21T09:30:13;101232.41;;;11.66;100.00
56928;BME280;60850;52.502;13.426;2023-03-21T09:32:41;101227.84;;;11.71;100.00
56928;BME280;60850;52.502;13.426;2023-03-21T09:35:13;101222.47;;;11.73;100.00
56928;BME280;60850;52.502;13.426;2023-03-21T09:37:40;101228.47;;;11.84;100.00
56928;BME280;60850;52.502;13.426;2023-03-21T09:40:14;101220.34;;;11.89;100.00
56928;BME280;60850;52.502;13.426;2023-03-21T09:42:52;101220.09;;;11.99;100.00
56928;BME280;60850;52.502;13.426;2023-03-21T09:45:30;101218.78;;;12.16;100.00
56928;BME280;60850;52.502;13.426;2023-03-21T09:48:00;101218.78;;;12.16;100.00
56928;BME280;60850;52.502;13.426;2023-03-21T09:50:30;101215.94;;;12.22;100.00
56928;BME280;60850;52.502;13.426;2023-03-21T09:53:00;101218.47;;;12.28;100.00
56928;BME280;60850;52.502;13.426;2023-03-21T09:55:31;101216.41;;;12.37;100.00
56928;BME280;60850;52.502;13.426;2023-03-21T09:58:04;101217.13;;;12.44;100.00
56928;BME280;60850;52.502;13.426;2023-03-21T10:00:36;101218.06;;;12.43;100.00
56928;BME280;60850;52.502;13.426;2023-03-21T10:03:07;101207.25;;;12.48;100.00
56928;BME280;60850;52.502;13.426;2023-03-21T10:05:40;101213.06;;;12.63;100.00
56928;BME280;60850;52.502;13.426;2023-03-21T10:08:13;101203.44;;;12.56;100.00
56928;BME280;60850;52.502;13.426;2023-03-21T10:10:46;101203.22;;;12.64;100.00
56928;BME280;60850;52.502;13.426;2023-03-21T10:13:19;101199.41;;;12.73;100.00
56928;BME280;60850;52.502;13.426;2023-03-21T10:15:47;101200.19;;;12.78;100.00
56928;BME280;60850;52.502;13.426;2023-03-21T10:18:19;101190.03;;;12.89;100.00
56928;BME280;60850;52.502;13.426;2023-03-21T10:20:49;101201.22;;;13.03;100.00
56928;BME280;60850;52.502;13.426;2023-03-21T10:23:19;101192.94;;;13.12;100.00
56928;BME280;60850;52.502;13.426;2023-03-21T10:25:48;101193.94;;;13.08;100.00
56928;BME280;60850;52.502;13.426;2023-03-21T10:28:19;101187.28;;;12.92;100.00
56928;BME280;60850;52.502;13.426;2023-03-21T10:30:50;101185.97;;;12.76;100.00
56928;BME280;60850;52.502;13.426;2023-03-21T10:33:19;101185.06;;;12.75;100.00
56928;BME280;60850;52.502;13.426;2023-03-21T10:35:50;101181.63;;;12.72;100.00
56928;BME280;60850;52.502;13.426;2023-03-21T10:38:21;101185.22;;;12.38;100.00
56928;BME280;60850;52.502;13.426;2023-03-21T10:40:48;101179.75;;;12.43;100.00
56928;BME280;60850;52.502;13.426;2023-03-21T10:43:30;101174.03;;;12.56;100.00
56928;BME280;60850;52.502;13.426;2023-03-21T10:46:05;101167.81;;;12.54;100.00
56928;BME280;60850;52.502;13.426;2023-03-21T10:48:35;101175.50;;;12.67;100.00
56928;BME280;60850;52.502;13.426;2023-03-21T10:51:05;101167.66;;;12.60;100.00
56928;BME280;60850;52.502;13.426;2023-03-21T10:53:36;101171.41;;;12.55;100.00
56928;BME280;60850;52.502;13.426;2023-03-21T10:56:07;101165.25;;;12.51;100.00
56928;BME280;60850;52.502;13.426;2023-03-21T10:58:39;101174.19;;;12.50;100.00
56928;BME280;60850;52.502;13.426;2023-03-21T11:01:11;101174.81;;;12.60;100.00
56928;BME280;60850;52.502;13.426;2023-03-21T11:03:42;101169.44;;;12.61;100.00
56928;BME280;60850;52.502;13.426;2023-03-21T11:06:15;101158.75;;;12.61;100.00
56928;BME280;60850;52.502;13.426;2023-03-21T11:08:46;101166.75;;;12.61;100.00
56928;BME280;60850;52.502;13.426;2023-03-21T11:11:23;101163.28;;;12.58;100.00
56928;BME280;60850;52.502;13.426;2023-03-21T11:13:57;101162.28;;;12.62;100.00
56928;BME280;60850;52.502;13.426;2023-03-21T11:16:35;101164.22;;;12.57;100.00
56928;BME280;60850;52.502;13.426;2023-03-21T11:19:12;101162.34;;;12.59;100.00
56928;BME280;60850;52.502;13.426;2023-03-21T11:21:40;101161.41;;;12.61;100.00
56928;BME280;60850;52.502;13.426;2023-03-21T11:24:12;101159.63;;;12.60;100.00
56928;BME280;60850;52.502;13.426;2023-03-21T11:26:41;101147.94;;;12.64;100.00
56928;BME280;60850;52.502;13.426;2023-03-21T11:29:19;101156.00;;;12.63;100.00
56928;BME280;60850;52.502;13.426;2023-03-21T11:31:50;101155.78;;;12.71;100.00
56928;BME280;60850;52.502;13.426;2023-03-21T11:34:26;101152.09;;;12.75;100.00
56928;BME280;60850;52.502;13.426;2023-03-21T11:36:58;101141.66;;;12.65;100.00
56928;BME280;60850;52.502;13.426;2023-03-21T11:39:34;101135.66;;;12.57;100.00
56928;BME280;60850;52.502;13.426;2023-03-21T11:42:04;101137.34;;;12.60;100.00
56928;BME280;60850;52.502;13.426;2023-03-21T11:44:34;101132.28;;;12.51;100.00
56928;BME280;60850;52.502;13.426;2023-03-21T11:47:09;101135.72;;;12.54;100.00
56928;BME280;60850;52.502;13.426;2023-03-21T11:49:39;101134.38;;;12.71;100.00
56928;BME280;60850;52.502;13.426;2023-03-21T11:52:15;101133.06;;;12.85;100.00
56928;BME280;60850;52.502;13.426;2023-03-21T11:57:41;101124.38;;;13.07;100.00
56928;BME280;60850;52.502;13.426;2023-03-21T12:00:14;101121.22;;;13.24;100.00
56928;BME280;60850;52.502;13.426;2023-03-21T12:05:52;101117.59;;;13.53;100.00
56928;BME280;60850;52.502;13.426;2023-03-21T12:08:29;101100.25;;;13.64;100.00
56928;BME280;60850;52.502;13.426;2023-03-21T12:11:06;101108.34;;;13.89;100.00
56928;BME280;60850;52.502;13.426;2023-03-21T12:13:46;101106.09;;;14.02;100.00
56928;BME280;60850;52.502;13.426;2023-03-21T12:16:30;101104.94;;;14.09;100.00
56928;BME280;60850;52.502;13.426;2023-03-21T12:19:11;101096.50;;;13.95;100.00
56928;BME280;60850;52.502;13.426;2023-03-21T12:21:47;101088.38;;;13.98;100.00
56928;BME280;60850;52.502;13.426;2023-03-21T12:24:21;101080.69;;;13.87;100.00
56928;BME280;60850;52.502;13.426;2023-03-21T12:26:56;101087.56;;;13.96;100.00
56928;BME280;60850;52.502;13.426;2023-03-21T12:29:34;101088.84;;;13.84;100.00
56928;BME280;60850;52.502;13.426;2023-03-21T12:32:13;101089.19;;;13.75;100.00
56928;BME280;60850;52.502;13.426;2023-03-21T12:34:56;101089.78;;;13.57;100.00
56928;BME280;60850;52.502;13.426;2023-03-21T12:37:33;101087.56;;;13.43;100.00
56928;BME280;60850;52.502;13.426;2023-03-21T12:40:08;101079.97;;;13.29;100.00
56928;BME280;60850;52.502;13.426;2023-03-21T12:42:58;101074.69;;;13.28;100.00
56928;BME280;60850;52.502;13.426;2023-03-21T12:45:32;101074.88;;;13.22;100.00
56928;BME280;60850;52.502;13.426;2023-03-21T12:48:12;101074.94;;;13.20;100.00
56928;BME280;60850;52.502;13.426;2023-03-21T12:50:40;101072.72;;;13.03;100.00
56928;BME280;60850;52.502;13.426;2023-03-21T12:53:23;101066.03;;;12.90;100.00
56928;BME280;60850;52.502;13.426;2023-03-21T12:55:54;101065.94;;;12.63;100.00
56928;BME280;60850;52.502;13.426;2023-03-21T12:58:23;101068.16;;;12.79;100.00
56928;BME280;60850;52.502;13.426;2023-03-21T13:00:54;101056.38;;;12.84;100.00
56928;BME280;60850;52.502;13.426;2023-03-21T13:03:28;101057.72;;;12.99;100.00
56928;BME280;60850;52.502;13.426;2023-03-21T13:05:57;101048.63;;;13.03;100.00
56928;BME280;60850;52.502;13.426;2023-03-21T13:08:29;101045.69;;;13.12;100.00